Crawfordsville, OR (97336)

8:06 PM PDT on July 25, 2016 (GMT -0700)
Sweet Home | | Change Station

Elev 846 ft 44.37 °N, 122.76 °W | Updated 34 seconds ago

Scattered Clouds
Scattered Clouds
76.1 °F
Feels Like 78 °F
N
0.0
Wind Variable Wind from West
Gusts 0.0 mph

Today
High -- | Low -- °F
--% Chance of Precip.
Yesterday
High -- | Low -- °F
Precip. -- in
Pressure 30.02 in
Visibility 10.0 miles
Clouds Scattered Clouds 20000 ft
Heat Index 78 °F
Dew Point 62 °F
Humidity 62%
Rainfall 0.00 in
Snow Depth Not available.
5:51 AM 8:43 PM
Waning Gibbous, 59% visible
METAR KEUG 260254Z 29007KT 10SM SCT200 27/15 A3003 RMK AO2 SLP166 T02670150 53003
Pressure 30.02 in
Visibility 10.0 miles
Clouds Scattered Clouds 20000 ft
Heat Index 78 °F
Dew Point 62 °F
Humidity 62%
Rainfall 0.00 in
Snow Depth Not available.
5:51 AM 8:43 PM
Waning Gibbous, 59% visible
METAR KEUG 260254Z 29007KT 10SM SCT200 27/15 A3003 RMK AO2 SLP166 T02670150 53003

10-Day Weather Forecast

Almanac

Astronomy

Jul. 25, 2016 Rise Set
Actual Time
Civil Twilight
Nautical Twilight
Astronomical Twilight
Moon
Length of Visible Light
Length of Day
Tomorrow will be .
, % of the Moon is Illuminated

Today's Extremes

State Highs State Lows

Community

WunderPhotos

Upload Photos

1,927,514 photos uploaded!

WunderBlog® & News

Nearby

Air Quality

  Air Quality AQ Index Pollutant
Not available.

Snow Depth

Station Depth Elevation

Earthquake Activity

City Distance Mag. Time & Date
Minimum magnitude displayed is 2.5.

Coastal Water Temperatures

Place Temperature

Stations

Nearby Weather Stations

Station Location Temp. Windchill Dew Point Humidity Wind Precip. Elev Updated Type
                   

Watches & Warnings

There are currently no watches in effect.